Terminal Aerodrome Forecast
Issued by NWS

Home | Current Version | Previous Version | Text Only | Print | Product List | Glossary On
Versions: 1 2 3 4 5 6 7 8 9 10 11 12 13 14 15 16 17 18 19 20 21 22 23 24 25 26
000
FTUS43 KDLH 111700
TAFHYR
TAF
KHYR 111728Z 1118/1218 19012G25KT P6SM VCSH OVC020
      TEMPO 1118/1121 BKN014 OVC040
     FM112100 19012G25KT P6SM VCTS OVC030CB
     FM120000 21012G18KT P6SM VCTS OVC030CB
     FM120300 20007KT P6SM SCT025 BKN040 PROB30 1203/1206 P6SM TS
      BKN020CB
     FM120600 21003KT 4SM BR SCT080
     FM120900 VRB02KT 2SM BR FEW009
     FM121400 27012KT P6SM SCT040=

USA.gov is the U.S. government's official web portal to all federal, state and local government web resources and services.